createdAt,value
2022-10-19T00:01:43.746Z,9.68
2022-10-19T00:05:45.423Z,11.68
2022-10-19T00:09:47.129Z,13.13
2022-10-19T00:13:48.959Z,13.00
2022-10-19T00:17:51.199Z,10.95
2022-10-19T00:21:53.244Z,8.07
2022-10-19T00:25:56.222Z,11.88
2022-10-19T00:29:57.876Z,13.50
2022-10-19T00:34:00.083Z,12.35
2022-10-19T00:38:01.771Z,15.25
2022-10-19T00:42:03.612Z,10.77
2022-10-19T00:46:05.275Z,4.10
2022-10-19T00:50:08.074Z,11.95
2022-10-19T00:54:10.332Z,7.03
2022-10-19T00:58:12.886Z,12.45
2022-10-19T01:02:14.807Z,11.27
2022-10-19T01:06:18.753Z,13.57
2022-10-19T01:10:25.606Z,11.25
2022-10-19T01:14:43.251Z,11.00
2022-10-19T01:23:10.130Z,5.93
2022-10-19T01:27:19.454Z,15.85
2022-10-19T01:31:37.691Z,19.00
2022-10-19T01:35:52.358Z,13.02
2022-10-19T01:40:07.897Z,12.07
2022-10-19T01:44:13.640Z,9.82
2022-10-19T01:48:25.424Z,11.88
2022-10-19T01:52:28.489Z,10.02
2022-10-19T01:56:32.537Z,16.27
2022-10-19T02:00:37.812Z,12.70
2022-10-19T02:04:40.818Z,11.48
2022-10-19T02:08:47.893Z,10.15
2022-10-19T02:12:50.974Z,10.10
2022-10-19T02:17:16.928Z,14.60
2022-10-19T02:21:19.380Z,11.00
2022-10-19T02:25:21.936Z,18.65
2022-10-19T02:29:23.749Z,13.35
2022-10-19T02:33:25.984Z,16.80
2022-10-19T02:37:27.838Z,7.05
2022-10-19T02:41:38.098Z,7.12
2022-10-19T02:45:47.859Z,9.52
2022-10-19T02:49:50.052Z,17.40
2022-10-19T02:53:51.694Z,11.50
2022-10-19T02:57:53.766Z,6.80
2022-10-19T03:01:55.512Z,7.65
2022-10-19T03:05:57.128Z,10.38
2022-10-19T03:09:58.765Z,17.90
2022-10-19T03:14:00.429Z,14.63
2022-10-19T03:18:02.148Z,8.02
2022-10-19T03:22:04.440Z,21.90
2022-10-19T03:26:10.051Z,10.93
2022-10-19T03:30:13.984Z,9.60
2022-10-19T03:34:15.636Z,17.90
2022-10-19T03:38:17.384Z,17.25
2022-10-19T03:42:19.014Z,20.85
2022-10-19T03:46:21.512Z,18.40
2022-10-19T03:50:23.275Z,30.27
2022-10-19T03:54:27.337Z,24.77
2022-10-19T03:58:30.967Z,22.15
2022-10-19T04:02:32.667Z,22.87
2022-10-19T04:06:36.917Z,22.98
2022-10-19T04:10:38.589Z,26.40
2022-10-19T04:14:56.411Z,23.20
2022-10-19T04:18:59.098Z,18.85
2022-10-19T04:23:00.773Z,23.87
2022-10-19T04:27:02.534Z,40.65
2022-10-19T04:31:05.925Z,27.50
2022-10-19T04:35:07.921Z,28.95
2022-10-19T04:39:09.724Z,17.33
2022-10-19T04:43:11.412Z,16.62
2022-10-19T04:47:13.117Z,18.10
2022-10-19T04:51:16.113Z,15.55
2022-10-19T04:55:18.044Z,22.10
2022-10-19T04:59:19.974Z,20.80
2022-10-19T05:03:21.659Z,35.03
2022-10-19T05:07:23.365Z,98.62
2022-10-19T05:11:25.671Z,51.37
2022-10-19T05:15:27.405Z,29.55
2022-10-19T05:19:29.090Z,31.23
2022-10-19T05:23:33.846Z,37.58
2022-10-19T05:27:35.748Z,31.75
2022-10-19T05:31:37.744Z,53.17
2022-10-19T05:35:39.371Z,44.53
2022-10-19T05:39:40.985Z,15.77
2022-10-19T05:43:43.804Z,69.68
2022-10-19T05:47:45.479Z,27.20
2022-10-19T05:51:48.373Z,19.10
2022-10-19T05:55:50.043Z,58.38
2022-10-19T05:59:51.919Z,52.75
2022-10-19T06:03:56.604Z,53.40
2022-10-19T06:07:58.286Z,51.78
2022-10-19T06:12:00.004Z,64.85
2022-10-19T06:16:01.832Z,35.38
2022-10-19T06:20:04.231Z,31.70
2022-10-19T06:24:06.562Z,20.73
2022-10-19T06:28:08.352Z,22.62
2022-10-19T06:32:10.005Z,32.83
2022-10-19T06:36:18.240Z,28.70
2022-10-19T06:40:19.939Z,15.38
2022-10-19T06:44:21.700Z,10.75
2022-10-19T06:48:23.812Z,16.40
2022-10-19T06:52:25.537Z,14.52
2022-10-19T06:56:27.791Z,15.48
2022-10-19T07:00:30.620Z,19.95
2022-10-19T07:04:32.510Z,17.75
2022-10-19T07:08:36.025Z,15.20
2022-10-19T07:12:37.666Z,12.77
2022-10-19T07:16:39.350Z,16.65
2022-10-19T07:20:41.311Z,13.95
2022-10-19T07:24:42.986Z,27.62
2022-10-19T07:28:47.057Z,21.08
2022-10-19T07:32:48.860Z,27.42
2022-10-19T07:36:51.799Z,26.48
2022-10-19T07:41:11.141Z,27.73
2022-10-19T07:45:12.818Z,26.73
2022-10-19T07:49:16.411Z,23.23
2022-10-19T07:53:18.108Z,25.60
2022-10-19T07:57:22.169Z,24.87
2022-10-19T08:01:28.301Z,28.00
2022-10-19T08:05:32.944Z,19.73
2022-10-19T08:09:52.304Z,20.25
2022-10-19T08:13:55.915Z,17.02
2022-10-19T08:17:57.652Z,16.92
2022-10-19T08:21:59.350Z,18.27
2022-10-19T08:26:01.022Z,15.23
2022-10-19T08:30:03.202Z,12.15
2022-10-19T08:34:06.130Z,16.92
2022-10-19T08:38:07.791Z,14.45
2022-10-19T08:42:19.222Z,11.05
2022-10-19T08:46:43.934Z,9.07
2022-10-19T08:50:47.432Z,18.37
2022-10-19T08:55:01.011Z,10.90
2022-10-19T08:59:23.629Z,7.85
2022-10-19T09:03:55.120Z,7.78
2022-10-19T09:07:58.045Z,8.30
2022-10-19T09:12:07.404Z,8.02
2022-10-19T09:16:14.165Z,9.50
2022-10-19T09:20:22.272Z,7.32
2022-10-19T09:24:29.880Z,8.15
2022-10-19T09:28:53.533Z,8.57
2022-10-19T09:33:02.515Z,13.38
2022-10-19T09:37:04.656Z,8.05
2022-10-19T09:41:20.685Z,11.32
2022-10-19T09:45:47.560Z,4.93
2022-10-19T09:49:49.503Z,7.35
2022-10-19T09:53:53.762Z,8.18
2022-10-19T09:58:16.283Z,6.00
2022-10-19T10:02:28.870Z,11.82
2022-10-19T10:06:30.662Z,7.12
2022-10-19T10:10:42.449Z,7.70
2022-10-19T10:14:44.960Z,8.40
2022-10-19T10:19:08.786Z,8.48
2022-10-19T10:23:23.693Z,6.47
2022-10-19T10:27:39.147Z,6.55
2022-10-19T10:31:42.319Z,6.30
2022-10-19T10:35:53.337Z,6.62
2022-10-19T10:39:59.191Z,6.18
2022-10-19T10:44:08.471Z,11.23
2022-10-19T10:48:30.193Z,6.60
2022-10-19T10:52:33.148Z,11.90
2022-10-19T10:56:35.508Z,9.43
2022-10-19T11:00:40.124Z,9.40
2022-10-19T11:04:51.458Z,6.80
2022-10-19T11:08:57.223Z,9.07
2022-10-19T11:13:05.920Z,8.73
2022-10-19T11:17:14.368Z,6.72
2022-10-19T11:21:26.656Z,7.70
2022-10-19T11:26:03.203Z,7.68
2022-10-19T11:30:10.326Z,8.63
2022-10-19T11:34:26.020Z,11.07
2022-10-19T11:38:37.037Z,8.73
2022-10-19T11:47:29.894Z,9.02
2022-10-19T11:51:51.811Z,7.87
2022-10-19T11:56:17.276Z,6.10
2022-10-19T12:00:38.038Z,6.53
2022-10-19T12:04:40.101Z,10.18
2022-10-19T12:09:00.616Z,6.53
2022-10-19T12:13:05.268Z,7.70
2022-10-19T12:17:15.454Z,5.95
2022-10-19T12:21:27.725Z,10.10
2022-10-19T12:25:29.717Z,7.50
2022-10-19T12:29:39.443Z,12.70
2022-10-19T12:34:00.870Z,5.65
2022-10-19T12:38:20.431Z,10.98
2022-10-19T12:42:39.214Z,7.40
2022-10-19T12:46:49.807Z,7.07
2022-10-19T12:50:54.524Z,9.15
2022-10-19T12:55:11.871Z,6.60
2022-10-19T12:59:42.543Z,6.62
2022-10-19T13:03:46.852Z,7.22
2022-10-19T13:12:19.868Z,5.60
2022-10-19T13:16:29.795Z,7.93
2022-10-19T13:20:31.760Z,7.57
2022-10-19T13:24:36.150Z,6.07
2022-10-19T13:28:39.082Z,6.97
2022-10-19T13:32:43.570Z,4.25
2022-10-19T13:37:02.273Z,6.72
2022-10-19T13:41:10.235Z,2.78
2022-10-19T13:45:24.978Z,7.97
2022-10-19T13:49:41.771Z,9.00
2022-10-19T13:54:22.728Z,6.70
2022-10-19T13:58:54.028Z,5.95
2022-10-19T14:03:33.535Z,6.62
2022-10-19T14:07:55.213Z,6.07
2022-10-19T14:12:15.228Z,3.78
2022-10-19T14:16:21.630Z,13.27
2022-10-19T14:20:34.053Z,9.57
2022-10-19T14:24:36.843Z,10.88
2022-10-19T14:28:39.670Z,6.47
2022-10-19T14:32:41.398Z,6.70
2022-10-19T14:36:48.736Z,5.18
2022-10-19T14:40:50.461Z,5.78
2022-10-19T14:44:52.716Z,5.93
2022-10-19T14:49:04.345Z,9.75
2022-10-19T14:53:54.045Z,7.37
2022-10-19T14:57:55.871Z,5.18
2022-10-19T15:02:01.219Z,10.13
2022-10-19T15:06:05.920Z,5.87
2022-10-19T15:10:24.265Z,3.30
2022-10-19T15:14:30.582Z,8.10
2022-10-19T15:18:49.754Z,5.03
2022-10-19T15:22:52.048Z,8.55
2022-10-19T15:27:06.470Z,12.63
2022-10-19T15:31:25.634Z,8.63
2022-10-19T15:35:31.359Z,6.70
2022-10-19T15:39:40.937Z,8.50
2022-10-19T15:43:50.032Z,8.10
2022-10-19T15:48:10.212Z,5.37
2022-10-19T15:52:29.592Z,5.80
2022-10-19T15:56:33.648Z,6.82
2022-10-19T16:00:35.357Z,6.60
2022-10-19T16:04:37.026Z,5.10
2022-10-19T16:08:39.076Z,6.47
2022-10-19T16:12:40.955Z,6.18
2022-10-19T16:16:42.738Z,10.38
2022-10-19T16:20:44.553Z,11.23
2022-10-19T16:24:46.250Z,5.93
2022-10-19T16:28:48.712Z,8.20
2022-10-19T16:32:51.099Z,10.35
2022-10-19T16:36:52.902Z,10.63
2022-10-19T16:40:54.590Z,6.95
2022-10-19T16:44:56.292Z,6.12
2022-10-19T16:48:57.973Z,6.85
2022-10-19T16:53:06.221Z,7.22
2022-10-19T16:57:09.891Z,9.98
2022-10-19T17:01:17.497Z,6.12
2022-10-19T17:09:40.748Z,9.88
2022-10-19T17:13:44.441Z,4.78
2022-10-19T17:17:46.124Z,9.57
2022-10-19T17:21:49.438Z,12.13
2022-10-19T17:25:51.329Z,12.80
2022-10-19T17:29:53.039Z,12.32
2022-10-19T17:33:55.098Z,9.50
2022-10-19T17:37:56.733Z,9.10
2022-10-19T17:42:03.223Z,9.13
2022-10-19T17:46:07.849Z,15.40
2022-10-19T17:50:09.948Z,11.55
2022-10-19T17:54:13.691Z,19.08
2022-10-19T17:58:15.355Z,13.05
2022-10-19T18:02:17.018Z,12.50
2022-10-19T18:06:24.811Z,11.57
2022-10-19T18:10:26.507Z,12.32
2022-10-19T18:14:28.219Z,14.98
2022-10-19T18:18:31.997Z,10.30
2022-10-19T18:22:33.705Z,8.40
2022-10-19T18:26:35.499Z,11.43
2022-10-19T18:30:37.579Z,6.43
2022-10-19T18:34:39.287Z,9.07
2022-10-19T18:38:41.267Z,9.02
2022-10-19T18:42:43.342Z,5.35
2022-10-19T18:46:45.885Z,6.72
2022-10-19T18:50:47.872Z,15.30
2022-10-19T18:54:49.728Z,6.72
2022-10-19T18:58:51.474Z,7.75
2022-10-19T19:02:56.260Z,12.35
2022-10-19T19:06:57.931Z,19.70
2022-10-19T19:11:19.846Z,14.18
2022-10-19T19:15:21.577Z,8.50
2022-10-19T19:19:25.714Z,22.42
2022-10-19T19:23:27.460Z,15.73
2022-10-19T19:27:31.755Z,11.10
2022-10-19T19:31:34.101Z,15.82
2022-10-19T19:35:45.605Z,13.18
2022-10-19T19:39:47.312Z,14.15
2022-10-19T19:43:48.993Z,10.25
2022-10-19T19:47:50.636Z,18.67
2022-10-19T19:51:53.337Z,16.00
2022-10-19T19:55:55.001Z,12.07
2022-10-19T19:59:56.749Z,13.75
2022-10-19T20:03:59.533Z,14.77
2022-10-19T20:08:01.268Z,73.47
2022-10-19T20:12:02.961Z,43.17
2022-10-19T20:16:33.260Z,64.00
2022-10-19T20:20:34.904Z,17.33
2022-10-19T20:24:37.740Z,11.82
2022-10-19T20:28:39.574Z,9.05
2022-10-19T20:32:41.204Z,8.38
2022-10-19T20:36:43.185Z,14.50
2022-10-19T20:40:44.852Z,10.63
2022-10-19T20:44:46.520Z,16.45
2022-10-19T20:48:49.316Z,22.87
2022-10-19T20:52:51.002Z,10.38
2022-10-19T20:56:52.824Z,13.23
2022-10-19T21:00:54.509Z,16.10
2022-10-19T21:04:56.176Z,14.77
2022-10-19T21:08:58.726Z,14.75
2022-10-19T21:13:00.431Z,11.40
2022-10-19T21:17:02.073Z,14.65
2022-10-19T21:21:15.613Z,12.25
2022-10-19T21:25:17.274Z,12.15
2022-10-19T21:29:19.216Z,17.20
2022-10-19T21:33:20.925Z,7.10
2022-10-19T21:37:22.609Z,13.85
2022-10-19T21:41:26.418Z,10.65
2022-10-19T21:45:30.650Z,12.07
2022-10-19T21:49:32.697Z,12.63
2022-10-19T21:53:34.368Z,8.32
2022-10-19T21:57:36.453Z,11.30
2022-10-19T22:01:41.082Z,10.88
2022-10-19T22:05:53.349Z,9.38
2022-10-19T22:09:56.525Z,7.90
2022-10-19T22:14:00.653Z,9.23
2022-10-19T22:18:02.343Z,12.98
2022-10-19T22:22:03.993Z,10.75
2022-10-19T22:26:13.496Z,12.50
2022-10-19T22:30:15.185Z,10.77
2022-10-19T22:34:17.778Z,13.25
2022-10-19T22:38:19.441Z,10.68
2022-10-19T22:42:21.087Z,14.05
2022-10-19T22:46:22.837Z,15.35
2022-10-19T22:50:24.508Z,19.40
2022-10-19T22:54:26.211Z,8.65
2022-10-19T22:58:27.902Z,16.25
2022-10-19T23:02:29.694Z,11.32
2022-10-19T23:06:31.349Z,13.85
2022-10-19T23:10:33.284Z,12.43
2022-10-19T23:14:34.913Z,16.00
2022-10-19T23:18:38.936Z,12.27
2022-10-19T23:22:40.657Z,14.90
2022-10-19T23:26:42.273Z,16.87
2022-10-19T23:30:43.940Z,16.37
2022-10-19T23:34:48.274Z,22.75
2022-10-19T23:38:51.549Z,16.55
2022-10-19T23:42:53.235Z,15.25
2022-10-19T23:46:54.897Z,17.00
2022-10-19T23:51:08.379Z,17.58
2022-10-19T23:55:10.179Z,14.63
2022-10-19T23:59:11.903Z,13.75
